Terminal Aerodrome Forecast
Issued by NWS

Home | Current Version | Previous Version | Text Only | Print | Product List | Glossary On
Versions: 1 2 3 4 5 6 7 8 9 10 11 12 13 14 15 16 17 18 19
000
FTUS43 KDLH 180542
TAFHIB
TAF
KHIB 180542Z 1806/1906 26004KT P6SM BKN040
     FM181200 13004KT 5SM -SN BKN025
     FM181400 11007KT 1/2SM SN OVC008
     FM181800 10007KT 1SM -SN BR OVC012
     FM182100 07008KT 3SM -SN OVC013
     FM190000 02009KT P6SM BKN045=

USA.gov is the U.S. government's official web portal to all federal, state and local government web resources and services.